sensor_id;sensor_type;location;lat;lon;timestamp;P1;durP1;ratioP1;P2;durP2;ratioP2
12970;SDS011;6550;48.650;8.774;2024-02-28T00:00:49;11.32;;;8.55;;
12970;SDS011;6550;48.650;8.774;2024-02-28T00:03:18;9.73;;;8.47;;
12970;SDS011;6550;48.650;8.774;2024-02-28T00:05:50;11.63;;;8.27;;
12970;SDS011;6550;48.650;8.774;2024-02-28T00:08:17;9.60;;;7.43;;
12970;SDS011;6550;48.650;8.774;2024-02-28T00:10:46;11.03;;;8.57;;
12970;SDS011;6550;48.650;8.774;2024-02-28T00:13:14;11.40;;;7.83;;
12970;SDS011;6550;48.650;8.774;2024-02-28T00:15:42;14.13;;;8.13;;
12970;SDS011;6550;48.650;8.774;2024-02-28T00:18:11;9.93;;;7.70;;
12970;SDS011;6550;48.650;8.774;2024-02-28T00:20:52;8.47;;;7.60;;
12970;SDS011;6550;48.650;8.774;2024-02-28T00:23:20;9.53;;;7.70;;
12970;SDS011;6550;48.650;8.774;2024-02-28T00:25:48;9.00;;;7.57;;
12970;SDS011;6550;48.650;8.774;2024-02-28T00:28:15;8.70;;;7.70;;
12970;SDS011;6550;48.650;8.774;2024-02-28T00:30:44;9.20;;;7.70;;
12970;SDS011;6550;48.650;8.774;2024-02-28T00:33:11;11.23;;;8.53;;
12970;SDS011;6550;48.650;8.774;2024-02-28T00:35:39;10.27;;;7.40;;
12970;SDS011;6550;48.650;8.774;2024-02-28T00:38:08;9.40;;;7.80;;
12970;SDS011;6550;48.650;8.774;2024-02-28T00:40:35;15.00;;;7.50;;
12970;SDS011;6550;48.650;8.774;2024-02-28T00:43:02;9.87;;;7.83;;
12970;SDS011;6550;48.650;8.774;2024-02-28T00:45:29;8.27;;;7.37;;
12970;SDS011;6550;48.650;8.774;2024-02-28T00:47:56;12.45;;;7.65;;
12970;SDS011;6550;48.650;8.774;2024-02-28T00:50:23;8.23;;;7.40;;
12970;SDS011;6550;48.650;8.774;2024-02-28T00:52:50;9.00;;;7.10;;
12970;SDS011;6550;48.650;8.774;2024-02-28T00:55:17;9.40;;;7.10;;
12970;SDS011;6550;48.650;8.774;2024-02-28T00:57:47;8.33;;;6.63;;
12970;SDS011;6550;48.650;8.774;2024-02-28T01:00:14;8.73;;;7.57;;
12970;SDS011;6550;48.650;8.774;2024-02-28T01:02:44;7.97;;;7.13;;
12970;SDS011;6550;48.650;8.774;2024-02-28T01:05:11;10.13;;;7.73;;
12970;SDS011;6550;48.650;8.774;2024-02-28T01:07:38;7.87;;;7.07;;
12970;SDS011;6550;48.650;8.774;2024-02-28T01:10:05;10.17;;;6.43;;
12970;SDS011;6550;48.650;8.774;2024-02-28T01:12:33;9.13;;;7.67;;
12970;SDS011;6550;48.650;8.774;2024-02-28T01:15:00;9.17;;;7.00;;
12970;SDS011;6550;48.650;8.774;2024-02-28T01:17:27;7.90;;;6.83;;
12970;SDS011;6550;48.650;8.774;2024-02-28T01:19:54;7.70;;;6.90;;
12970;SDS011;6550;48.650;8.774;2024-02-28T01:22:21;8.80;;;7.40;;
12970;SDS011;6550;48.650;8.774;2024-02-28T01:24:48;8.97;;;7.20;;
12970;SDS011;6550;48.650;8.774;2024-02-28T01:27:16;9.87;;;7.37;;
12970;SDS011;6550;48.650;8.774;2024-02-28T01:29:43;9.17;;;7.30;;
12970;SDS011;6550;48.650;8.774;2024-02-28T01:32:10;7.37;;;6.20;;
12970;SDS011;6550;48.650;8.774;2024-02-28T01:34:40;8.53;;;6.87;;
12970;SDS011;6550;48.650;8.774;2024-02-28T01:37:09;8.57;;;6.60;;
12970;SDS011;6550;48.650;8.774;2024-02-28T01:39:36;8.77;;;7.13;;
12970;SDS011;6550;48.650;8.774;2024-02-28T01:42:03;9.57;;;6.47;;
12970;SDS011;6550;48.650;8.774;2024-02-28T01:44:30;7.67;;;6.87;;
12970;SDS011;6550;48.650;8.774;2024-02-28T01:46:57;8.17;;;7.23;;
12970;SDS011;6550;48.650;8.774;2024-02-28T01:49:24;11.27;;;7.80;;
12970;SDS011;6550;48.650;8.774;2024-02-28T01:51:51;10.33;;;6.97;;
12970;SDS011;6550;48.650;8.774;2024-02-28T01:54:21;9.87;;;7.67;;
12970;SDS011;6550;48.650;8.774;2024-02-28T01:56:48;8.73;;;7.47;;
12970;SDS011;6550;48.650;8.774;2024-02-28T01:59:15;8.60;;;7.70;;
12970;SDS011;6550;48.650;8.774;2024-02-28T02:01:44;9.10;;;7.77;;
12970;SDS011;6550;48.650;8.774;2024-02-28T02:04:12;10.50;;;7.70;;
12970;SDS011;6550;48.650;8.774;2024-02-28T02:06:41;10.07;;;8.43;;
12970;SDS011;6550;48.650;8.774;2024-02-28T02:09:10;7.87;;;6.73;;
12970;SDS011;6550;48.650;8.774;2024-02-28T02:11:38;8.70;;;7.70;;
12970;SDS011;6550;48.650;8.774;2024-02-28T02:14:05;9.00;;;7.60;;
12970;SDS011;6550;48.650;8.774;2024-02-28T02:16:32;9.03;;;7.30;;
12970;SDS011;6550;48.650;8.774;2024-02-28T02:18:59;9.97;;;7.57;;
12970;SDS011;6550;48.650;8.774;2024-02-28T02:21:28;10.60;;;7.57;;
12970;SDS011;6550;48.650;8.774;2024-02-28T02:23:57;8.87;;;7.87;;
12970;SDS011;6550;48.650;8.774;2024-02-28T02:26:24;13.43;;;7.57;;
12970;SDS011;6550;48.650;8.774;2024-02-28T02:28:53;8.63;;;7.73;;
12970;SDS011;6550;48.650;8.774;2024-02-28T02:31:22;8.00;;;7.20;;
12970;SDS011;6550;48.650;8.774;2024-02-28T02:33:49;9.07;;;7.50;;
12970;SDS011;6550;48.650;8.774;2024-02-28T02:36:18;9.13;;;7.60;;
12970;SDS011;6550;48.650;8.774;2024-02-28T02:38:45;9.47;;;7.90;;
12970;SDS011;6550;48.650;8.774;2024-02-28T02:41:12;8.97;;;7.93;;
12970;SDS011;6550;48.650;8.774;2024-02-28T02:43:39;11.60;;;8.20;;
12970;SDS011;6550;48.650;8.774;2024-02-28T02:46:08;9.13;;;8.03;;
12970;SDS011;6550;48.650;8.774;2024-02-28T02:48:35;8.13;;;7.20;;
12970;SDS011;6550;48.650;8.774;2024-02-28T02:51:03;9.97;;;8.30;;
12970;SDS011;6550;48.650;8.774;2024-02-28T02:53:30;9.93;;;8.57;;
12970;SDS011;6550;48.650;8.774;2024-02-28T02:55:57;9.83;;;8.20;;
12970;SDS011;6550;48.650;8.774;2024-02-28T02:58:23;11.57;;;8.27;;
12970;SDS011;6550;48.650;8.774;2024-02-28T03:00:50;9.10;;;7.77;;
12970;SDS011;6550;48.650;8.774;2024-02-28T03:03:17;10.20;;;8.73;;
12970;SDS011;6550;48.650;8.774;2024-02-28T03:05:44;10.63;;;8.40;;
12970;SDS011;6550;48.650;8.774;2024-02-28T03:08:11;10.70;;;8.23;;
12970;SDS011;6550;48.650;8.774;2024-02-28T03:10:37;12.17;;;9.27;;
12970;SDS011;6550;48.650;8.774;2024-02-28T03:13:09;10.07;;;8.33;;
12970;SDS011;6550;48.650;8.774;2024-02-28T03:15:38;10.30;;;7.97;;
12970;SDS011;6550;48.650;8.774;2024-02-28T03:18:05;13.47;;;8.07;;
12970;SDS011;6550;48.650;8.774;2024-02-28T03:20:32;11.90;;;8.90;;
12970;SDS011;6550;48.650;8.774;2024-02-28T03:22:59;11.07;;;9.00;;
12970;SDS011;6550;48.650;8.774;2024-02-28T03:25:26;11.77;;;8.77;;
12970;SDS011;6550;48.650;8.774;2024-02-28T03:27:54;11.40;;;9.20;;
12970;SDS011;6550;48.650;8.774;2024-02-28T03:30:21;12.23;;;8.93;;
12970;SDS011;6550;48.650;8.774;2024-02-28T03:32:51;13.37;;;9.17;;
12970;SDS011;6550;48.650;8.774;2024-02-28T03:35:17;12.37;;;8.97;;
12970;SDS011;6550;48.650;8.774;2024-02-28T03:37:44;14.07;;;9.23;;
12970;SDS011;6550;48.650;8.774;2024-02-28T03:40:13;12.27;;;10.35;;
12970;SDS011;6550;48.650;8.774;2024-02-28T03:42:43;10.63;;;9.20;;
12970;SDS011;6550;48.650;8.774;2024-02-28T03:45:10;13.97;;;10.13;;
12970;SDS011;6550;48.650;8.774;2024-02-28T03:47:39;10.17;;;8.60;;
12970;SDS011;6550;48.650;8.774;2024-02-28T03:50:06;12.43;;;8.97;;
12970;SDS011;6550;48.650;8.774;2024-02-28T03:52:33;8.90;;;7.93;;
12970;SDS011;6550;48.650;8.774;2024-02-28T03:55:00;10.00;;;8.73;;
12970;SDS011;6550;48.650;8.774;2024-02-28T03:57:31;12.17;;;8.83;;
12970;SDS011;6550;48.650;8.774;2024-02-28T04:00:01;10.93;;;8.83;;
12970;SDS011;6550;48.650;8.774;2024-02-28T04:02:28;12.83;;;9.07;;
12970;SDS011;6550;48.650;8.774;2024-02-28T04:04:55;11.43;;;9.20;;
12970;SDS011;6550;48.650;8.774;2024-02-28T04:07:24;12.68;;;10.15;;
12970;SDS011;6550;48.650;8.774;2024-02-28T04:09:53;10.07;;;8.57;;
12970;SDS011;6550;48.650;8.774;2024-02-28T04:12:20;12.10;;;9.20;;
12970;SDS011;6550;48.650;8.774;2024-02-28T04:14:46;10.23;;;8.63;;
12970;SDS011;6550;48.650;8.774;2024-02-28T04:17:13;14.27;;;9.40;;
12970;SDS011;6550;48.650;8.774;2024-02-28T04:19:43;11.97;;;9.40;;
12970;SDS011;6550;48.650;8.774;2024-02-28T04:22:10;12.83;;;9.20;;
12970;SDS011;6550;48.650;8.774;2024-02-28T04:24:36;11.53;;;9.30;;
12970;SDS011;6550;48.650;8.774;2024-02-28T04:27:03;12.13;;;9.93;;
12970;SDS011;6550;48.650;8.774;2024-02-28T04:29:31;10.40;;;8.83;;
12970;SDS011;6550;48.650;8.774;2024-02-28T04:32:01;10.87;;;8.87;;
12970;SDS011;6550;48.650;8.774;2024-02-28T04:34:30;12.83;;;9.43;;
12970;SDS011;6550;48.650;8.774;2024-02-28T04:36:56;11.03;;;8.67;;
12970;SDS011;6550;48.650;8.774;2024-02-28T04:39:23;11.83;;;8.43;;
12970;SDS011;6550;48.650;8.774;2024-02-28T04:41:50;12.73;;;9.50;;
12970;SDS011;6550;48.650;8.774;2024-02-28T04:44:17;14.40;;;9.70;;
12970;SDS011;6550;48.650;8.774;2024-02-28T04:46:46;9.40;;;8.33;;
12970;SDS011;6550;48.650;8.774;2024-02-28T04:49:15;13.33;;;9.10;;
12970;SDS011;6550;48.650;8.774;2024-02-28T04:51:41;14.03;;;9.07;;
12970;SDS011;6550;48.650;8.774;2024-02-28T04:54:08;16.23;;;9.57;;
12970;SDS011;6550;48.650;8.774;2024-02-28T04:56:41;12.93;;;9.77;;
12970;SDS011;6550;48.650;8.774;2024-02-28T04:59:10;12.88;;;10.45;;
12970;SDS011;6550;48.650;8.774;2024-02-28T05:01:38;11.47;;;9.13;;
12970;SDS011;6550;48.650;8.774;2024-02-28T05:04:06;14.33;;;9.70;;
12970;SDS011;6550;48.650;8.774;2024-02-28T05:06:33;11.60;;;9.43;;
12970;SDS011;6550;48.650;8.774;2024-02-28T05:09:04;12.00;;;9.30;;
12970;SDS011;6550;48.650;8.774;2024-02-28T05:11:31;12.20;;;9.47;;
12970;SDS011;6550;48.650;8.774;2024-02-28T05:14:00;13.00;;;9.50;;
12970;SDS011;6550;48.650;8.774;2024-02-28T05:16:27;12.63;;;9.37;;
12970;SDS011;6550;48.650;8.774;2024-02-28T05:18:56;10.77;;;9.20;;
12970;SDS011;6550;48.650;8.774;2024-02-28T05:21:23;14.13;;;10.40;;
12970;SDS011;6550;48.650;8.774;2024-02-28T05:23:55;11.83;;;9.47;;
12970;SDS011;6550;48.650;8.774;2024-02-28T05:26:21;14.03;;;9.23;;
12970;SDS011;6550;48.650;8.774;2024-02-28T05:28:48;10.70;;;8.70;;
12970;SDS011;6550;48.650;8.774;2024-02-28T05:31:24;9.73;;;8.73;;
12970;SDS011;6550;48.650;8.774;2024-02-28T05:33:54;11.00;;;8.67;;
12970;SDS011;6550;48.650;8.774;2024-02-28T05:36:28;10.43;;;8.80;;
12970;SDS011;6550;48.650;8.774;2024-02-28T05:38:56;11.83;;;9.60;;
12970;SDS011;6550;48.650;8.774;2024-02-28T05:41:27;11.50;;;9.00;;
12970;SDS011;6550;48.650;8.774;2024-02-28T05:43:56;11.93;;;9.40;;
12970;SDS011;6550;48.650;8.774;2024-02-28T05:46:25;10.87;;;9.03;;
12970;SDS011;6550;48.650;8.774;2024-02-28T05:48:52;10.50;;;8.80;;
12970;SDS011;6550;48.650;8.774;2024-02-28T05:51:21;12.95;;;10.38;;
12970;SDS011;6550;48.650;8.774;2024-02-28T05:53:52;12.00;;;9.33;;
12970;SDS011;6550;48.650;8.774;2024-02-28T05:56:19;11.03;;;8.97;;
12970;SDS011;6550;48.650;8.774;2024-02-28T05:58:47;10.27;;;9.00;;
12970;SDS011;6550;48.650;8.774;2024-02-28T06:01:14;11.33;;;9.30;;
12970;SDS011;6550;48.650;8.774;2024-02-28T06:03:47;17.37;;;10.17;;
12970;SDS011;6550;48.650;8.774;2024-02-28T06:06:17;10.50;;;9.23;;
12970;SDS011;6550;48.650;8.774;2024-02-28T06:08:44;9.73;;;8.73;;
12970;SDS011;6550;48.650;8.774;2024-02-28T06:11:11;10.97;;;9.20;;
12970;SDS011;6550;48.650;8.774;2024-02-28T06:13:40;11.70;;;9.33;;
12970;SDS011;6550;48.650;8.774;2024-02-28T06:16:15;11.07;;;9.47;;
12970;SDS011;6550;48.650;8.774;2024-02-28T06:18:47;11.27;;;9.33;;
12970;SDS011;6550;48.650;8.774;2024-02-28T06:21:16;11.53;;;9.37;;
12970;SDS011;6550;48.650;8.774;2024-02-28T06:23:47;12.20;;;9.73;;
12970;SDS011;6550;48.650;8.774;2024-02-28T06:26:14;11.93;;;9.83;;
12970;SDS011;6550;48.650;8.774;2024-02-28T06:28:44;11.10;;;8.73;;
12970;SDS011;6550;48.650;8.774;2024-02-28T06:31:17;10.70;;;8.70;;
12970;SDS011;6550;48.650;8.774;2024-02-28T06:33:46;10.03;;;8.53;;
12970;SDS011;6550;48.650;8.774;2024-02-28T06:36:13;10.47;;;8.77;;
12970;SDS011;6550;48.650;8.774;2024-02-28T06:38:41;10.67;;;9.07;;
12970;SDS011;6550;48.650;8.774;2024-02-28T06:41:08;10.98;;;9.57;;
12970;SDS011;6550;48.650;8.774;2024-02-28T06:43:39;10.90;;;8.50;;
12970;SDS011;6550;48.650;8.774;2024-02-28T06:46:06;10.57;;;8.33;;
12970;SDS011;6550;48.650;8.774;2024-02-28T06:48:38;11.93;;;8.90;;
12970;SDS011;6550;48.650;8.774;2024-02-28T06:51:07;10.40;;;8.73;;
12970;SDS011;6550;48.650;8.774;2024-02-28T06:53:33;13.77;;;8.33;;
12970;SDS011;6550;48.650;8.774;2024-02-28T06:56:01;11.53;;;7.90;;
12970;SDS011;6550;48.650;8.774;2024-02-28T06:58:30;10.83;;;8.37;;
12970;SDS011;6550;48.650;8.774;2024-02-28T07:00:58;9.43;;;8.37;;
12970;SDS011;6550;48.650;8.774;2024-02-28T07:03:27;9.85;;;8.18;;
12970;SDS011;6550;48.650;8.774;2024-02-28T07:05:54;14.97;;;8.20;;
12970;SDS011;6550;48.650;8.774;2024-02-28T07:08:21;7.83;;;7.03;;
12970;SDS011;6550;48.650;8.774;2024-02-28T07:10:50;9.33;;;7.50;;
12970;SDS011;6550;48.650;8.774;2024-02-28T07:13:20;9.43;;;7.37;;
12970;SDS011;6550;48.650;8.774;2024-02-28T07:15:52;8.97;;;7.83;;
12970;SDS011;6550;48.650;8.774;2024-02-28T07:18:20;9.77;;;7.47;;
12970;SDS011;6550;48.650;8.774;2024-02-28T07:20:47;9.97;;;6.83;;
12970;SDS011;6550;48.650;8.774;2024-02-28T07:23:14;8.70;;;7.50;;
12970;SDS011;6550;48.650;8.774;2024-02-28T07:25:41;9.10;;;6.83;;
12970;SDS011;6550;48.650;8.774;2024-02-28T07:28:08;8.10;;;7.03;;
12970;SDS011;6550;48.650;8.774;2024-02-28T07:30:34;8.07;;;7.10;;
12970;SDS011;6550;48.650;8.774;2024-02-28T07:33:04;11.55;;;8.13;;
12970;SDS011;6550;48.650;8.774;2024-02-28T07:35:31;7.93;;;7.13;;
12970;SDS011;6550;48.650;8.774;2024-02-28T07:37:58;12.93;;;7.20;;
12970;SDS011;6550;48.650;8.774;2024-02-28T07:40:25;9.13;;;7.23;;
12970;SDS011;6550;48.650;8.774;2024-02-28T07:42:53;8.50;;;6.57;;
12970;SDS011;6550;48.650;8.774;2024-02-28T07:45:20;7.17;;;6.47;;
12970;SDS011;6550;48.650;8.774;2024-02-28T07:47:47;8.03;;;6.70;;
12970;SDS011;6550;48.650;8.774;2024-02-28T07:50:14;8.00;;;6.63;;
12970;SDS011;6550;48.650;8.774;2024-02-28T07:52:42;7.50;;;6.77;;
12970;SDS011;6550;48.650;8.774;2024-02-28T07:55:11;7.60;;;6.60;;
12970;SDS011;6550;48.650;8.774;2024-02-28T07:57:40;9.33;;;6.83;;
12970;SDS011;6550;48.650;8.774;2024-02-28T08:00:07;7.80;;;6.77;;
12970;SDS011;6550;48.650;8.774;2024-02-28T08:02:34;7.33;;;6.60;;
12970;SDS011;6550;48.650;8.774;2024-02-28T08:05:05;7.93;;;6.90;;
12970;SDS011;6550;48.650;8.774;2024-02-28T08:07:34;9.17;;;6.53;;
12970;SDS011;6550;48.650;8.774;2024-02-28T08:10:02;10.00;;;6.73;;
12970;SDS011;6550;48.650;8.774;2024-02-28T08:12:32;6.73;;;5.80;;
12970;SDS011;6550;48.650;8.774;2024-02-28T08:14:59;9.33;;;6.63;;
12970;SDS011;6550;48.650;8.774;2024-02-28T08:17:25;6.83;;;6.00;;
12970;SDS011;6550;48.650;8.774;2024-02-28T08:19:52;8.00;;;6.40;;
12970;SDS011;6550;48.650;8.774;2024-02-28T08:22:21;7.72;;;6.97;;
12970;SDS011;6550;48.650;8.774;2024-02-28T08:24:51;7.07;;;6.37;;
12970;SDS011;6550;48.650;8.774;2024-02-28T08:27:19;7.90;;;7.10;;
12970;SDS011;6550;48.650;8.774;2024-02-28T08:29:47;7.20;;;6.17;;
12970;SDS011;6550;48.650;8.774;2024-02-28T08:32:13;6.83;;;6.13;;
12970;SDS011;6550;48.650;8.774;2024-02-28T08:34:44;6.80;;;6.10;;
12970;SDS011;6550;48.650;8.774;2024-02-28T08:37:14;6.97;;;5.60;;
12970;SDS011;6550;48.650;8.774;2024-02-28T08:39:42;6.43;;;5.73;;
12970;SDS011;6550;48.650;8.774;2024-02-28T08:42:11;7.63;;;6.27;;
12970;SDS011;6550;48.650;8.774;2024-02-28T08:44:41;8.10;;;5.93;;
12970;SDS011;6550;48.650;8.774;2024-02-28T08:47:08;6.53;;;5.57;;
12970;SDS011;6550;48.650;8.774;2024-02-28T08:49:38;6.30;;;5.40;;
12970;SDS011;6550;48.650;8.774;2024-02-28T08:52:05;6.07;;;5.43;;
12970;SDS011;6550;48.650;8.774;2024-02-28T08:54:32;7.03;;;6.20;;
12970;SDS011;6550;48.650;8.774;2024-02-28T08:57:04;6.80;;;5.83;;
12970;SDS011;6550;48.650;8.774;2024-02-28T08:59:33;7.70;;;6.57;;
12970;SDS011;6550;48.650;8.774;2024-02-28T09:02:00;6.50;;;5.73;;
12970;SDS011;6550;48.650;8.774;2024-02-28T09:04:27;7.03;;;6.33;;
12970;SDS011;6550;48.650;8.774;2024-02-28T09:06:55;7.40;;;5.63;;
12970;SDS011;6550;48.650;8.774;2024-02-28T09:09:22;6.80;;;5.10;;
12970;SDS011;6550;48.650;8.774;2024-02-28T09:11:50;7.82;;;6.43;;
12970;SDS011;6550;48.650;8.774;2024-02-28T09:14:19;6.53;;;5.83;;
12970;SDS011;6550;48.650;8.774;2024-02-28T09:16:46;7.27;;;5.77;;
12970;SDS011;6550;48.650;8.774;2024-02-28T09:19:14;7.70;;;6.13;;
12970;SDS011;6550;48.650;8.774;2024-02-28T09:21:43;6.80;;;6.10;;
12970;SDS011;6550;48.650;8.774;2024-02-28T09:24:09;7.03;;;5.80;;
12970;SDS011;6550;48.650;8.774;2024-02-28T09:26:39;6.07;;;5.47;;
12970;SDS011;6550;48.650;8.774;2024-02-28T09:29:06;7.40;;;5.50;;
12970;SDS011;6550;48.650;8.774;2024-02-28T09:31:33;5.67;;;5.10;;
12970;SDS011;6550;48.650;8.774;2024-02-28T09:34:00;7.13;;;6.43;;
12970;SDS011;6550;48.650;8.774;2024-02-28T09:36:39;7.57;;;6.00;;
12970;SDS011;6550;48.650;8.774;2024-02-28T09:39:08;7.83;;;5.67;;
12970;SDS011;6550;48.650;8.774;2024-02-28T09:41:39;7.17;;;6.43;;
12970;SDS011;6550;48.650;8.774;2024-02-28T09:44:07;7.93;;;6.00;;
12970;SDS011;6550;48.650;8.774;2024-02-28T09:46:34;7.07;;;6.37;;
12970;SDS011;6550;48.650;8.774;2024-02-28T09:49:04;7.17;;;6.10;;
12970;SDS011;6550;48.650;8.774;2024-02-28T09:51:33;8.90;;;6.50;;
12970;SDS011;6550;48.650;8.774;2024-02-28T09:54:05;6.93;;;5.90;;
12970;SDS011;6550;48.650;8.774;2024-02-28T09:56:34;7.13;;;6.17;;
12970;SDS011;6550;48.650;8.774;2024-02-28T09:59:04;8.10;;;6.70;;
12970;SDS011;6550;48.650;8.774;2024-02-28T10:01:35;6.53;;;5.80;;
12970;SDS011;6550;48.650;8.774;2024-02-28T10:04:08;9.07;;;6.77;;
12970;SDS011;6550;48.650;8.774;2024-02-28T10:06:40;7.40;;;6.60;;
12970;SDS011;6550;48.650;8.774;2024-02-28T10:09:07;7.60;;;6.80;;
12970;SDS011;6550;48.650;8.774;2024-02-28T10:11:34;6.73;;;6.03;;
12970;SDS011;6550;48.650;8.774;2024-02-28T10:14:02;7.10;;;6.40;;
12970;SDS011;6550;48.650;8.774;2024-02-28T10:16:29;9.30;;;6.87;;
12970;SDS011;6550;48.650;8.774;2024-02-28T10:18:58;7.70;;;6.83;;
12970;SDS011;6550;48.650;8.774;2024-02-28T10:21:29;7.75;;;6.97;;
12970;SDS011;6550;48.650;8.774;2024-02-28T10:23:59;8.53;;;6.87;;
12970;SDS011;6550;48.650;8.774;2024-02-28T10:26:30;8.77;;;6.80;;
12970;SDS011;6550;48.650;8.774;2024-02-28T10:29:04;7.53;;;6.50;;
12970;SDS011;6550;48.650;8.774;2024-02-28T10:31:37;7.57;;;6.23;;
12970;SDS011;6550;48.650;8.774;2024-02-28T10:34:06;7.60;;;6.37;;
12970;SDS011;6550;48.650;8.774;2024-02-28T10:36:35;7.23;;;6.53;;
12970;SDS011;6550;48.650;8.774;2024-02-28T10:39:06;7.27;;;6.53;;
12970;SDS011;6550;48.650;8.774;2024-02-28T10:41:36;7.13;;;6.43;;
12970;SDS011;6550;48.650;8.774;2024-02-28T10:44:04;7.87;;;6.37;;
12970;SDS011;6550;48.650;8.774;2024-02-28T10:46:31;7.80;;;7.05;;
12970;SDS011;6550;48.650;8.774;2024-02-28T10:49:04;7.27;;;6.57;;
12970;SDS011;6550;48.650;8.774;2024-02-28T10:51:35;6.73;;;6.03;;
12970;SDS011;6550;48.650;8.774;2024-02-28T10:54:10;7.83;;;6.33;;
12970;SDS011;6550;48.650;8.774;2024-02-28T10:56:39;8.27;;;7.33;;
12970;SDS011;6550;48.650;8.774;2024-02-28T10:59:07;8.13;;;6.40;;
12970;SDS011;6550;48.650;8.774;2024-02-28T11:01:37;6.83;;;5.90;;
12970;SDS011;6550;48.650;8.774;2024-02-28T11:04:11;7.10;;;6.37;;
12970;SDS011;6550;48.650;8.774;2024-02-28T11:06:52;7.53;;;6.07;;
12970;SDS011;6550;48.650;8.774;2024-02-28T11:09:22;5.80;;;5.20;;
12970;SDS011;6550;48.650;8.774;2024-02-28T11:11:50;7.03;;;5.73;;
12970;SDS011;6550;48.650;8.774;2024-02-28T11:14:18;6.40;;;5.80;;
12970;SDS011;6550;48.650;8.774;2024-02-28T11:17:04;6.67;;;6.03;;
12970;SDS011;6550;48.650;8.774;2024-02-28T11:19:32;6.87;;;6.17;;
12970;SDS011;6550;48.650;8.774;2024-02-28T11:22:02;5.97;;;5.33;;
12970;SDS011;6550;48.650;8.774;2024-02-28T11:24:35;6.27;;;5.67;;
12970;SDS011;6550;48.650;8.774;2024-02-28T11:27:05;6.47;;;5.87;;
12970;SDS011;6550;48.650;8.774;2024-02-28T11:29:33;6.80;;;6.13;;
12970;SDS011;6550;48.650;8.774;2024-02-28T11:32:00;9.20;;;7.23;;
12970;SDS011;6550;48.650;8.774;2024-02-28T11:34:26;6.63;;;5.93;;
12970;SDS011;6550;48.650;8.774;2024-02-28T11:36:54;7.27;;;6.47;;
12970;SDS011;6550;48.650;8.774;2024-02-28T11:39:22;5.87;;;5.27;;
12970;SDS011;6550;48.650;8.774;2024-02-28T11:41:54;6.30;;;5.70;;
12970;SDS011;6550;48.650;8.774;2024-02-28T11:44:21;6.07;;;5.47;;
12970;SDS011;6550;48.650;8.774;2024-02-28T11:46:50;6.73;;;6.13;;
12970;SDS011;6550;48.650;8.774;2024-02-28T11:49:19;6.80;;;5.97;;
12970;SDS011;6550;48.650;8.774;2024-02-28T11:51:48;7.27;;;6.47;;
12970;SDS011;6550;48.650;8.774;2024-02-28T11:54:15;7.27;;;6.17;;
12970;SDS011;6550;48.650;8.774;2024-02-28T11:56:42;7.90;;;6.83;;
12970;SDS011;6550;48.650;8.774;2024-02-28T11:59:10;7.43;;;6.20;;
12970;SDS011;6550;48.650;8.774;2024-02-28T12:01:40;6.50;;;5.90;;
12970;SDS011;6550;48.650;8.774;2024-02-28T12:04:10;7.17;;;6.47;;
12970;SDS011;6550;48.650;8.774;2024-02-28T12:06:39;6.83;;;6.13;;
12970;SDS011;6550;48.650;8.774;2024-02-28T12:09:08;6.43;;;5.60;;
12970;SDS011;6550;48.650;8.774;2024-02-28T12:11:36;7.03;;;6.30;;
12970;SDS011;6550;48.650;8.774;2024-02-28T12:14:04;8.60;;;5.63;;
12970;SDS011;6550;48.650;8.774;2024-02-28T12:16:41;7.83;;;7.00;;
12970;SDS011;6550;48.650;8.774;2024-02-28T12:19:09;7.00;;;6.27;;
12970;SDS011;6550;48.650;8.774;2024-02-28T12:21:39;7.07;;;5.67;;
12970;SDS011;6550;48.650;8.774;2024-02-28T12:24:07;5.43;;;4.93;;
12970;SDS011;6550;48.650;8.774;2024-02-28T12:26:37;6.93;;;6.23;;
12970;SDS011;6550;48.650;8.774;2024-02-28T12:29:05;6.87;;;6.17;;
12970;SDS011;6550;48.650;8.774;2024-02-28T12:31:32;6.23;;;5.63;;
12970;SDS011;6550;48.650;8.774;2024-02-28T12:34:02;7.00;;;5.80;;
12970;SDS011;6550;48.650;8.774;2024-02-28T12:36:30;7.10;;;6.40;;
12970;SDS011;6550;48.650;8.774;2024-02-28T12:38:58;8.90;;;6.97;;
12970;SDS011;6550;48.650;8.774;2024-02-28T12:41:26;7.70;;;6.03;;
12970;SDS011;6550;48.650;8.774;2024-02-28T12:43:53;6.47;;;5.87;;
12970;SDS011;6550;48.650;8.774;2024-02-28T12:46:22;6.43;;;5.83;;
12970;SDS011;6550;48.650;8.774;2024-02-28T12:48:49;7.03;;;6.40;;
12970;SDS011;6550;48.650;8.774;2024-02-28T12:54:04;8.30;;;7.50;;
12970;SDS011;6550;48.650;8.774;2024-02-28T12:56:31;6.73;;;6.13;;
12970;SDS011;6550;48.650;8.774;2024-02-28T12:58:58;8.53;;;7.33;;
12970;SDS011;6550;48.650;8.774;2024-02-28T13:01:25;8.37;;;6.57;;
12970;SDS011;6550;48.650;8.774;2024-02-28T13:03:53;8.77;;;7.70;;
12970;SDS011;6550;48.650;8.774;2024-02-28T13:06:20;7.57;;;6.87;;
12970;SDS011;6550;48.650;8.774;2024-02-28T13:08:48;7.87;;;7.07;;
12970;SDS011;6550;48.650;8.774;2024-02-28T13:11:18;7.50;;;6.70;;
12970;SDS011;6550;48.650;8.774;2024-02-28T13:13:50;8.32;;;7.45;;
12970;SDS011;6550;48.650;8.774;2024-02-28T13:16:20;7.60;;;6.80;;
12970;SDS011;6550;48.650;8.774;2024-02-28T13:18:49;7.30;;;6.50;;
12970;SDS011;6550;48.650;8.774;2024-02-28T13:21:16;7.40;;;6.57;;
12970;SDS011;6550;48.650;8.774;2024-02-28T13:23:43;9.83;;;7.23;;
12970;SDS011;6550;48.650;8.774;2024-02-28T13:26:15;8.33;;;7.53;;
12970;SDS011;6550;48.650;8.774;2024-02-28T13:28:46;7.70;;;6.10;;
12970;SDS011;6550;48.650;8.774;2024-02-28T13:31:20;7.27;;;6.00;;
12970;SDS011;6550;48.650;8.774;2024-02-28T13:33:47;7.13;;;6.43;;
12970;SDS011;6550;48.650;8.774;2024-02-28T13:36:15;7.13;;;6.43;;
12970;SDS011;6550;48.650;8.774;2024-02-28T13:38:42;7.30;;;6.57;;
12970;SDS011;6550;48.650;8.774;2024-02-28T13:41:10;6.37;;;5.70;;
12970;SDS011;6550;48.650;8.774;2024-02-28T13:43:39;7.00;;;6.30;;
12970;SDS011;6550;48.650;8.774;2024-02-28T13:46:08;7.37;;;6.67;;
12970;SDS011;6550;48.650;8.774;2024-02-28T13:48:37;7.73;;;6.60;;
12970;SDS011;6550;48.650;8.774;2024-02-28T13:51:04;7.07;;;6.10;;
12970;SDS011;6550;48.650;8.774;2024-02-28T13:53:31;6.00;;;5.27;;
12970;SDS011;6550;48.650;8.774;2024-02-28T13:55:58;7.20;;;6.50;;
12970;SDS011;6550;48.650;8.774;2024-02-28T13:58:27;7.00;;;6.30;;
12970;SDS011;6550;48.650;8.774;2024-02-28T14:01:07;8.50;;;7.70;;
12970;SDS011;6550;48.650;8.774;2024-02-28T14:03:37;7.00;;;6.33;;
12970;SDS011;6550;48.650;8.774;2024-02-28T14:06:10;7.77;;;6.97;;
12970;SDS011;6550;48.650;8.774;2024-02-28T14:08:37;7.00;;;6.27;;
12970;SDS011;6550;48.650;8.774;2024-02-28T14:11:08;7.43;;;6.63;;
12970;SDS011;6550;48.650;8.774;2024-02-28T14:13:36;7.07;;;6.10;;
12970;SDS011;6550;48.650;8.774;2024-02-28T14:16:06;7.33;;;6.60;;
12970;SDS011;6550;48.650;8.774;2024-02-28T14:18:33;6.50;;;5.90;;
12970;SDS011;6550;48.650;8.774;2024-02-28T14:20:59;7.10;;;6.40;;
12970;SDS011;6550;48.650;8.774;2024-02-28T14:23:32;7.10;;;6.40;;
12970;SDS011;6550;48.650;8.774;2024-02-28T14:25:59;7.80;;;6.67;;
12970;SDS011;6550;48.650;8.774;2024-02-28T14:28:25;8.17;;;7.30;;
12970;SDS011;6550;48.650;8.774;2024-02-28T14:30:52;7.70;;;6.90;;
12970;SDS011;6550;48.650;8.774;2024-02-28T14:33:20;6.83;;;5.87;;
12970;SDS011;6550;48.650;8.774;2024-02-28T14:35:47;9.07;;;7.75;;
12970;SDS011;6550;48.650;8.774;2024-02-28T14:38:17;8.13;;;6.83;;
12970;SDS011;6550;48.650;8.774;2024-02-28T14:40:46;7.47;;;6.67;;
12970;SDS011;6550;48.650;8.774;2024-02-28T14:43:13;9.90;;;6.83;;
12970;SDS011;6550;48.650;8.774;2024-02-28T14:45:42;7.10;;;5.83;;
12970;SDS011;6550;48.650;8.774;2024-02-28T14:48:09;7.90;;;6.40;;
12970;SDS011;6550;48.650;8.774;2024-02-28T14:50:36;7.60;;;6.80;;
12970;SDS011;6550;48.650;8.774;2024-02-28T14:53:05;8.03;;;7.23;;
12970;SDS011;6550;48.650;8.774;2024-02-28T14:55:34;8.70;;;7.47;;
12970;SDS011;6550;48.650;8.774;2024-02-28T14:58:02;7.93;;;7.13;;
12970;SDS011;6550;48.650;8.774;2024-02-28T15:00:28;8.67;;;7.77;;
12970;SDS011;6550;48.650;8.774;2024-02-28T15:02:58;8.00;;;7.20;;
12970;SDS011;6550;48.650;8.774;2024-02-28T15:05:25;8.10;;;7.00;;
12970;SDS011;6550;48.650;8.774;2024-02-28T15:07:54;8.67;;;7.33;;